sensor_id;sensor_type;location;lat;lon;timestamp;pressure;altitude;pressure_sealevel;temperature;humidity
65872;BME280;52653;50.080;21.992;2023-07-20T00:00:56;98320.44;;;16.39;88.98
65872;BME280;52653;50.080;21.992;2023-07-20T00:03:49;98327.60;;;16.37;88.94
65872;BME280;52653;50.080;21.992;2023-07-20T00:06:48;98329.30;;;16.31;89.18
65872;BME280;52653;50.080;21.992;2023-07-20T00:09:40;98320.08;;;16.28;89.37
65872;BME280;52653;50.080;21.992;2023-07-20T00:12:31;98324.58;;;16.26;89.45
65872;BME280;52653;50.080;21.992;2023-07-20T00:15:09;98321.48;;;16.24;89.27
65872;BME280;52653;50.080;21.992;2023-07-20T00:18:02;98322.08;;;16.22;89.30
65872;BME280;52653;50.080;21.992;2023-07-20T00:20:47;98320.39;;;16.21;89.16
65872;BME280;52653;50.080;21.992;2023-07-20T00:23:42;98312.67;;;16.19;89.38
65872;BME280;52653;50.080;21.992;2023-07-20T00:26:34;98306.17;;;16.18;89.75
65872;BME280;52653;50.080;21.992;2023-07-20T00:29:27;98314.09;;;16.15;90.25
65872;BME280;52653;50.080;21.992;2023-07-20T00:32:00;98313.39;;;16.15;90.57
65872;BME280;52653;50.080;21.992;2023-07-20T00:34:56;98316.88;;;16.16;90.76
65872;BME280;52653;50.080;21.992;2023-07-20T00:37:49;98311.77;;;16.16;90.49
65872;BME280;52653;50.080;21.992;2023-07-20T00:40:42;98304.68;;;16.16;90.77
65872;BME280;52653;50.080;21.992;2023-07-20T00:43:25;98303.23;;;16.17;90.77
65872;BME280;52653;50.080;21.992;2023-07-20T00:46:18;98303.61;;;16.16;90.48
65872;BME280;52653;50.080;21.992;2023-07-20T00:49:04;98312.23;;;16.17;90.80
65872;BME280;52653;50.080;21.992;2023-07-20T00:51:48;98307.99;;;16.17;91.52
65872;BME280;52653;50.080;21.992;2023-07-20T00:54:31;98306.48;;;16.19;91.72
65872;BME280;52653;50.080;21.992;2023-07-20T00:57:25;98300.39;;;16.21;91.58
65872;BME280;52653;50.080;21.992;2023-07-20T01:00:07;98303.56;;;16.21;91.58
65872;BME280;52653;50.080;21.992;2023-07-20T01:03:00;98300.65;;;16.23;91.95
65872;BME280;52653;50.080;21.992;2023-07-20T01:05:51;98299.31;;;16.25;92.07
65872;BME280;52653;50.080;21.992;2023-07-20T01:08:58;98296.42;;;16.27;91.82
65872;BME280;52653;50.080;21.992;2023-07-20T01:11:57;98289.95;;;16.29;91.72
65872;BME280;52653;50.080;21.992;2023-07-20T01:14:46;98290.21;;;16.31;91.73
65872;BME280;52653;50.080;21.992;2023-07-20T01:17:30;98290.16;;;16.32;91.65
65872;BME280;52653;50.080;21.992;2023-07-20T01:20:23;98292.07;;;16.32;91.52
65872;BME280;52653;50.080;21.992;2023-07-20T01:23:42;98290.95;;;16.30;91.74
65872;BME280;52653;50.080;21.992;2023-07-20T01:27:04;98293.07;;;16.30;91.79
65872;BME280;52653;50.080;21.992;2023-07-20T01:30:19;98293.83;;;16.33;91.82
65872;BME280;52653;50.080;21.992;2023-07-20T01:33:18;98297.11;;;16.34;91.97
65872;BME280;52653;50.080;21.992;2023-07-20T01:36:12;98299.11;;;16.37;92.19
65872;BME280;52653;50.080;21.992;2023-07-20T01:38:58;98300.95;;;16.40;92.47
65872;BME280;52653;50.080;21.992;2023-07-20T01:41:52;98311.14;;;16.45;93.05
65872;BME280;52653;50.080;21.992;2023-07-20T01:44:25;98320.11;;;16.50;93.75
65872;BME280;52653;50.080;21.992;2023-07-20T01:47:18;98322.31;;;16.57;93.80
65872;BME280;52653;50.080;21.992;2023-07-20T01:49:54;98323.27;;;16.62;93.96
65872;BME280;52653;50.080;21.992;2023-07-20T01:52:37;98321.75;;;16.69;93.99
65872;BME280;52653;50.080;21.992;2023-07-20T01:55:17;98317.95;;;16.74;93.65
65872;BME280;52653;50.080;21.992;2023-07-20T01:58:10;98316.27;;;16.80;93.45
65872;BME280;52653;50.080;21.992;2023-07-20T02:00:55;98315.36;;;16.84;93.16
65872;BME280;52653;50.080;21.992;2023-07-20T02:03:31;98311.94;;;16.86;92.93
65872;BME280;52653;50.080;21.992;2023-07-20T02:06:24;98301.03;;;16.87;93.02
65872;BME280;52653;50.080;21.992;2023-07-20T02:09:07;98295.38;;;16.91;93.11
65872;BME280;52653;50.080;21.992;2023-07-20T02:12:00;98291.11;;;16.95;92.94
65872;BME280;52653;50.080;21.992;2023-07-20T02:14:53;98284.03;;;16.98;92.70
65872;BME280;52653;50.080;21.992;2023-07-20T02:17:40;98283.59;;;17.00;92.30
65872;BME280;52653;50.080;21.992;2023-07-20T02:20:34;98289.53;;;17.02;92.06
65872;BME280;52653;50.080;21.992;2023-07-20T02:23:27;98296.79;;;17.02;91.76
65872;BME280;52653;50.080;21.992;2023-07-20T02:26:20;98294.13;;;17.02;91.84
65872;BME280;52653;50.080;21.992;2023-07-20T02:29:14;98298.56;;;17.02;91.69
65872;BME280;52653;50.080;21.992;2023-07-20T02:32:08;98296.27;;;17.02;91.65
65872;BME280;52653;50.080;21.992;2023-07-20T02:34:55;98291.83;;;17.02;91.43
65872;BME280;52653;50.080;21.992;2023-07-20T02:37:49;98285.80;;;17.02;91.44
65872;BME280;52653;50.080;21.992;2023-07-20T02:40:44;98278.71;;;17.02;91.15
65872;BME280;52653;50.080;21.992;2023-07-20T02:43:37;98276.77;;;17.02;91.09
65872;BME280;52653;50.080;21.992;2023-07-20T02:46:23;98270.75;;;17.02;91.09
65872;BME280;52653;50.080;21.992;2023-07-20T02:49:08;98263.68;;;17.01;90.79
65872;BME280;52653;50.080;21.992;2023-07-20T02:52:03;98263.90;;;17.01;90.81
65872;BME280;52653;50.080;21.992;2023-07-20T02:54:56;98265.16;;;17.00;90.52
65872;BME280;52653;50.080;21.992;2023-07-20T02:57:49;98264.53;;;16.99;90.25
65872;BME280;52653;50.080;21.992;2023-07-20T03:00:43;98262.47;;;16.97;90.15
65872;BME280;52653;50.080;21.992;2023-07-20T03:03:36;98257.05;;;16.96;90.33
65872;BME280;52653;50.080;21.992;2023-07-20T03:06:22;98262.58;;;16.95;90.18
65872;BME280;52653;50.080;21.992;2023-07-20T03:09:16;98271.06;;;16.96;90.22
65872;BME280;52653;50.080;21.992;2023-07-20T03:12:02;98273.70;;;16.96;90.27
65872;BME280;52653;50.080;21.992;2023-07-20T03:14:48;98272.33;;;16.98;90.18
65872;BME280;52653;50.080;21.992;2023-07-20T03:17:41;98276.30;;;17.00;90.13
65872;BME280;52653;50.080;21.992;2023-07-20T03:20:36;98275.65;;;17.03;89.93
65872;BME280;52653;50.080;21.992;2023-07-20T03:23:29;98276.79;;;17.09;90.01
65872;BME280;52653;50.080;21.992;2023-07-20T03:26:22;98284.11;;;17.15;89.82
65872;BME280;52653;50.080;21.992;2023-07-20T03:29:15;98284.75;;;17.23;89.85
65872;BME280;52653;50.080;21.992;2023-07-20T03:31:53;98287.80;;;17.34;89.67
65872;BME280;52653;50.080;21.992;2023-07-20T03:34:46;98290.41;;;17.45;89.57
65872;BME280;52653;50.080;21.992;2023-07-20T03:37:31;98287.80;;;17.55;89.36
65872;BME280;52653;50.080;21.992;2023-07-20T03:40:26;98286.30;;;17.67;89.25
65872;BME280;52653;50.080;21.992;2023-07-20T03:43:19;98280.20;;;17.79;89.28
65872;BME280;52653;50.080;21.992;2023-07-20T03:46:12;98274.78;;;17.91;88.86
65872;BME280;52653;50.080;21.992;2023-07-20T03:49:05;98278.87;;;18.01;88.30
65872;BME280;52653;50.080;21.992;2023-07-20T03:51:47;98283.52;;;18.10;88.21
65872;BME280;52653;50.080;21.992;2023-07-20T03:54:20;98282.73;;;18.19;87.89
65872;BME280;52653;50.080;21.992;2023-07-20T03:57:13;98286.71;;;18.31;87.70
65872;BME280;52653;50.080;21.992;2023-07-20T04:00:08;98297.08;;;18.45;87.49
65872;BME280;52653;50.080;21.992;2023-07-20T04:02:43;98308.88;;;18.57;87.16
65872;BME280;52653;50.080;21.992;2023-07-20T04:05:36;98320.78;;;18.67;86.63
65872;BME280;52653;50.080;21.992;2023-07-20T04:08:19;98322.93;;;18.76;86.32
65872;BME280;52653;50.080;21.992;2023-07-20T04:11:12;98324.81;;;18.87;85.51
65872;BME280;52653;50.080;21.992;2023-07-20T04:13:57;98327.02;;;18.99;85.37
65872;BME280;52653;50.080;21.992;2023-07-20T04:16:51;98328.59;;;19.12;84.70
65872;BME280;52653;50.080;21.992;2023-07-20T04:19:29;98335.64;;;19.20;83.75
65872;BME280;52653;50.080;21.992;2023-07-20T04:22:11;98340.52;;;19.21;83.80
65872;BME280;52653;50.080;21.992;2023-07-20T04:24:46;98341.96;;;19.24;83.71
65872;BME280;52653;50.080;21.992;2023-07-20T04:27:24;98349.75;;;19.24;83.40
65872;BME280;52653;50.080;21.992;2023-07-20T04:30:18;98350.23;;;19.19;83.29
65872;BME280;52653;50.080;21.992;2023-07-20T04:33:14;98357.62;;;19.11;83.24
65872;BME280;52653;50.080;21.992;2023-07-20T04:35:57;98370.10;;;19.04;83.68
65872;BME280;52653;50.080;21.992;2023-07-20T04:38:50;98387.27;;;18.96;83.98
65872;BME280;52653;50.080;21.992;2023-07-20T04:41:26;98391.17;;;18.87;84.02
65872;BME280;52653;50.080;21.992;2023-07-20T04:44:19;98400.84;;;18.75;83.76
65872;BME280;52653;50.080;21.992;2023-07-20T04:47:11;98412.23;;;18.64;84.00
65872;BME280;52653;50.080;21.992;2023-07-20T04:49:57;98412.47;;;18.56;83.73
65872;BME280;52653;50.080;21.992;2023-07-20T04:52:50;98422.42;;;18.52;82.78
65872;BME280;52653;50.080;21.992;2023-07-20T04:55:48;98415.77;;;18.47;82.83
65872;BME280;52653;50.080;21.992;2023-07-20T04:58:43;98409.95;;;18.43;83.15
65872;BME280;52653;50.080;21.992;2023-07-20T05:01:35;98403.25;;;18.39;83.05
65872;BME280;52653;50.080;21.992;2023-07-20T05:04:21;98399.38;;;18.35;83.20
65872;BME280;52653;50.080;21.992;2023-07-20T05:07:13;98398.55;;;18.27;83.65
65872;BME280;52653;50.080;21.992;2023-07-20T05:10:08;98392.42;;;18.18;83.65
65872;BME280;52653;50.080;21.992;2023-07-20T05:13:02;98389.02;;;18.09;84.28
65872;BME280;52653;50.080;21.992;2023-07-20T05:15:43;98401.80;;;17.98;84.85
65872;BME280;52653;50.080;21.992;2023-07-20T05:18:29;98410.27;;;17.85;85.58
65872;BME280;52653;50.080;21.992;2023-07-20T05:21:08;98419.55;;;17.73;86.25
65872;BME280;52653;50.080;21.992;2023-07-20T05:24:01;98426.15;;;17.61;87.04
65872;BME280;52653;50.080;21.992;2023-07-20T05:26:54;98435.10;;;17.52;87.55
65872;BME280;52653;50.080;21.992;2023-07-20T05:29:47;98439.96;;;17.47;88.12
65872;BME280;52653;50.080;21.992;2023-07-20T05:32:40;98444.64;;;17.42;88.58
65872;BME280;52653;50.080;21.992;2023-07-20T05:35:27;98449.81;;;17.37;88.66
65872;BME280;52653;50.080;21.992;2023-07-20T05:38:20;98447.24;;;17.35;88.66
65872;BME280;52653;50.080;21.992;2023-07-20T05:41:13;98453.88;;;17.34;88.65
65872;BME280;52653;50.080;21.992;2023-07-20T05:44:07;98450.65;;;17.31;88.99
65872;BME280;52653;50.080;21.992;2023-07-20T05:46:59;98447.73;;;17.29;88.95
65872;BME280;52653;50.080;21.992;2023-07-20T05:49:54;98449.62;;;17.30;89.39
65872;BME280;52653;50.080;21.992;2023-07-20T05:52:37;98459.73;;;17.34;89.46
65872;BME280;52653;50.080;21.992;2023-07-20T05:55:33;98458.98;;;17.35;89.22
65872;BME280;52653;50.080;21.992;2023-07-20T05:58:14;98450.67;;;17.38;89.15
65872;BME280;52653;50.080;21.992;2023-07-20T06:01:07;98443.79;;;17.45;89.15
65872;BME280;52653;50.080;21.992;2023-07-20T06:04:01;98446.21;;;17.53;89.59
65872;BME280;52653;50.080;21.992;2023-07-20T06:06:54;98445.44;;;17.70;89.40
65872;BME280;52653;50.080;21.992;2023-07-20T06:09:47;98453.70;;;17.89;89.30
65872;BME280;52653;50.080;21.992;2023-07-20T06:12:40;98473.05;;;18.07;88.89
65872;BME280;52653;50.080;21.992;2023-07-20T06:15:34;98475.96;;;18.23;88.38
65872;BME280;52653;50.080;21.992;2023-07-20T06:18:27;98472.02;;;18.41;87.96
65872;BME280;52653;50.080;21.992;2023-07-20T06:21:21;98462.55;;;18.66;87.14
65872;BME280;52653;50.080;21.992;2023-07-20T06:24:14;98476.71;;;18.98;85.74
65872;BME280;52653;50.080;21.992;2023-07-20T06:27:07;98479.30;;;19.13;85.19
65872;BME280;52653;50.080;21.992;2023-07-20T06:30:00;98471.39;;;19.17;84.20
65872;BME280;52653;50.080;21.992;2023-07-20T06:32:45;98474.35;;;19.16;83.92
65872;BME280;52653;50.080;21.992;2023-07-20T06:35:27;98490.44;;;19.07;84.00
65872;BME280;52653;50.080;21.992;2023-07-20T06:41:15;98489.64;;;18.72;84.23
65872;BME280;52653;50.080;21.992;2023-07-20T06:44:11;98445.55;;;18.59;84.23
65872;BME280;52653;50.080;21.992;2023-07-20T06:46:49;98453.91;;;18.48;84.25
65872;BME280;52653;50.080;21.992;2023-07-20T06:49:32;98469.41;;;18.37;84.41
65872;BME280;52653;50.080;21.992;2023-07-20T06:52:11;98472.56;;;18.38;84.70
65872;BME280;52653;50.080;21.992;2023-07-20T06:54:57;98485.48;;;18.38;84.67
65872;BME280;52653;50.080;21.992;2023-07-20T06:57:55;98487.61;;;18.42;84.28
65872;BME280;52653;50.080;21.992;2023-07-20T07:00:49;98493.45;;;18.43;84.29
65872;BME280;52653;50.080;21.992;2023-07-20T07:03:36;98500.41;;;18.35;84.38
65872;BME280;52653;50.080;21.992;2023-07-20T07:06:19;98509.84;;;18.24;84.77
65872;BME280;52653;50.080;21.992;2023-07-20T07:09:14;98523.96;;;18.04;84.93
65872;BME280;52653;50.080;21.992;2023-07-20T07:12:00;98527.31;;;17.86;85.23
65872;BME280;52653;50.080;21.992;2023-07-20T07:14:46;98528.66;;;17.81;86.09
65872;BME280;52653;50.080;21.992;2023-07-20T07:17:39;98541.69;;;17.71;86.04
65872;BME280;52653;50.080;21.992;2023-07-20T07:20:22;98538.95;;;17.64;86.81
65872;BME280;52653;50.080;21.992;2023-07-20T07:23:18;98536.03;;;17.59;87.07
65872;BME280;52653;50.080;21.992;2023-07-20T07:26:12;98539.95;;;17.55;87.48
65872;BME280;52653;50.080;21.992;2023-07-20T07:29:05;98538.85;;;17.52;87.22
65872;BME280;52653;50.080;21.992;2023-07-20T07:31:37;98534.44;;;17.47;87.16
65872;BME280;52653;50.080;21.992;2023-07-20T07:34:21;98546.92;;;17.42;87.54
65872;BME280;52653;50.080;21.992;2023-07-20T07:37:08;98548.98;;;17.36;87.92
65872;BME280;52653;50.080;21.992;2023-07-20T07:40:01;98557.39;;;17.30;88.28
65872;BME280;52653;50.080;21.992;2023-07-20T07:42:56;98567.77;;;17.24;88.57
65872;BME280;52653;50.080;21.992;2023-07-20T07:45:42;98563.03;;;17.23;88.91
65872;BME280;52653;50.080;21.992;2023-07-20T07:48:35;98555.23;;;17.16;89.06
65872;BME280;52653;50.080;21.992;2023-07-20T07:51:23;98539.06;;;17.12;89.14
65872;BME280;52653;50.080;21.992;2023-07-20T07:54:16;98527.98;;;17.11;89.13
65872;BME280;52653;50.080;21.992;2023-07-20T07:57:09;98503.94;;;17.10;89.41
65872;BME280;52653;50.080;21.992;2023-07-20T07:59:47;98519.52;;;17.10;89.88
65872;BME280;52653;50.080;21.992;2023-07-20T08:02:40;98538.91;;;17.16;90.08
65872;BME280;52653;50.080;21.992;2023-07-20T08:05:17;98554.04;;;17.22;90.13
65872;BME280;52653;50.080;21.992;2023-07-20T08:08:04;98558.61;;;17.23;89.94
65872;BME280;52653;50.080;21.992;2023-07-20T08:10:55;98564.44;;;17.27;89.60
65872;BME280;52653;50.080;21.992;2023-07-20T08:13:48;98563.60;;;17.30;89.47
65872;BME280;52653;50.080;21.992;2023-07-20T08:16:41;98555.65;;;17.33;89.37
65872;BME280;52653;50.080;21.992;2023-07-20T08:19:35;98553.63;;;17.47;89.48
65872;BME280;52653;50.080;21.992;2023-07-20T08:22:16;98553.73;;;17.71;89.53
65872;BME280;52653;50.080;21.992;2023-07-20T08:25:10;98558.25;;;18.00;88.54
65872;BME280;52653;50.080;21.992;2023-07-20T08:27:47;98550.66;;;18.13;87.48
65872;BME280;52653;50.080;21.992;2023-07-20T08:30:25;98541.70;;;18.15;86.75
65872;BME280;52653;50.080;21.992;2023-07-20T08:33:19;98550.21;;;18.22;85.60
65872;BME280;52653;50.080;21.992;2023-07-20T08:36:02;98555.79;;;18.39;85.28
65872;BME280;52653;50.080;21.992;2023-07-20T08:39:02;98564.38;;;18.73;85.41
65872;BME280;52653;50.080;21.992;2023-07-20T08:41:48;98568.50;;;18.97;82.49
65872;BME280;52653;50.080;21.992;2023-07-20T08:44:21;98569.48;;;19.02;82.19
65872;BME280;52653;50.080;21.992;2023-07-20T08:47:01;98574.18;;;19.10;80.79
65872;BME280;52653;50.080;21.992;2023-07-20T08:49:35;98576.98;;;19.45;80.15
65872;BME280;52653;50.080;21.992;2023-07-20T08:52:27;98580.66;;;19.88;77.97
65872;BME280;52653;50.080;21.992;2023-07-20T08:55:20;98583.38;;;20.28;76.98
65872;BME280;52653;50.080;21.992;2023-07-20T08:58:11;98588.80;;;20.62;76.37
65872;BME280;52653;50.080;21.992;2023-07-20T09:01:06;98591.45;;;20.95;74.87
65872;BME280;52653;50.080;21.992;2023-07-20T09:04:01;98592.26;;;21.26;73.88
65872;BME280;52653;50.080;21.992;2023-07-20T09:06:37;98593.81;;;21.50;73.38
65872;BME280;52653;50.080;21.992;2023-07-20T09:09:41;98590.17;;;21.65;72.01
65872;BME280;52653;50.080;21.992;2023-07-20T09:12:16;98592.78;;;21.64;71.65
65872;BME280;52653;50.080;21.992;2023-07-20T09:15:02;98590.35;;;21.74;72.47
65872;BME280;52653;50.080;21.992;2023-07-20T09:17:34;98587.69;;;22.02;70.29
65872;BME280;52653;50.080;21.992;2023-07-20T09:20:09;98591.86;;;22.42;69.02
65872;BME280;52653;50.080;21.992;2023-07-20T09:23:05;98589.92;;;22.74;68.32
65872;BME280;52653;50.080;21.992;2023-07-20T09:25:38;98591.65;;;23.02;66.39
65872;BME280;52653;50.080;21.992;2023-07-20T09:28:16;98589.48;;;23.17;64.43
65872;BME280;52653;50.080;21.992;2023-07-20T09:30:52;98587.45;;;23.21;64.19
65872;BME280;52653;50.080;21.992;2023-07-20T09:33:27;98589.42;;;23.39;64.84
65872;BME280;52653;50.080;21.992;2023-07-20T09:36:05;98592.44;;;23.44;63.63
65872;BME280;52653;50.080;21.992;2023-07-20T09:39:00;98593.24;;;23.61;64.05
65872;BME280;52653;50.080;21.992;2023-07-20T09:41:45;98595.29;;;23.88;65.07
65872;BME280;52653;50.080;21.992;2023-07-20T09:44:32;98594.58;;;23.88;61.57
65872;BME280;52653;50.080;21.992;2023-07-20T09:47:28;98596.07;;;23.82;62.22
65872;BME280;52653;50.080;21.992;2023-07-20T09:50:12;98604.73;;;23.71;61.18
65872;BME280;52653;50.080;21.992;2023-07-20T09:53:08;98600.15;;;23.65;61.24
65872;BME280;52653;50.080;21.992;2023-07-20T09:56:03;98597.96;;;23.65;61.56
65872;BME280;52653;50.080;21.992;2023-07-20T09:58:44;98597.13;;;23.77;62.02
65872;BME280;52653;50.080;21.992;2023-07-20T10:01:20;98597.30;;;23.92;60.55
65872;BME280;52653;50.080;21.992;2023-07-20T10:03:58;98590.94;;;23.86;59.19
65872;BME280;52653;50.080;21.992;2023-07-20T10:06:54;98593.55;;;23.94;60.84
65872;BME280;52653;50.080;21.992;2023-07-20T10:09:49;98597.36;;;23.91;59.87
65872;BME280;52653;50.080;21.992;2023-07-20T10:12:35;98597.62;;;24.02;60.36
65872;BME280;52653;50.080;21.992;2023-07-20T10:15:27;98602.17;;;24.29;60.18
65872;BME280;52653;50.080;21.992;2023-07-20T10:18:25;98600.42;;;24.45;58.36
65872;BME280;52653;50.080;21.992;2023-07-20T10:21:13;98604.02;;;24.67;57.40
65872;BME280;52653;50.080;21.992;2023-07-20T10:24:03;98604.19;;;24.90;56.12
65872;BME280;52653;50.080;21.992;2023-07-20T10:26:47;98599.66;;;24.91;55.35
65872;BME280;52653;50.080;21.992;2023-07-20T10:29:41;98597.38;;;24.76;54.99
65872;BME280;52653;50.080;21.992;2023-07-20T10:32:35;98598.10;;;24.86;56.35
65872;BME280;52653;50.080;21.992;2023-07-20T10:35:29;98594.94;;;25.20;57.45
65872;BME280;52653;50.080;21.992;2023-07-20T10:38:14;98592.58;;;25.39;54.54
65872;BME280;52653;50.080;21.992;2023-07-20T10:40:58;98591.25;;;25.60;54.85
65872;BME280;52653;50.080;21.992;2023-07-20T10:43:31;98594.02;;;25.64;51.88
65872;BME280;52653;50.080;21.992;2023-07-20T10:46:45;98600.85;;;25.34;51.69
65872;BME280;52653;50.080;21.992;2023-07-20T10:49:59;98597.91;;;25.21;53.25
65872;BME280;52653;50.080;21.992;2023-07-20T10:52:41;98603.85;;;25.09;53.51
65872;BME280;52653;50.080;21.992;2023-07-20T10:55:34;98603.89;;;24.92;53.58
65872;BME280;52653;50.080;21.992;2023-07-20T10:58:16;98600.56;;;24.72;53.76
65872;BME280;52653;50.080;21.992;2023-07-20T11:01:18;98599.00;;;24.57;54.14
65872;BME280;52653;50.080;21.992;2023-07-20T11:03:59;98592.73;;;24.45;54.20
65872;BME280;52653;50.080;21.992;2023-07-20T11:06:34;98590.92;;;24.43;54.76
65872;BME280;52653;50.080;21.992;2023-07-20T11:09:17;98587.16;;;24.48;55.06
65872;BME280;52653;50.080;21.992;2023-07-20T11:12:12;98577.88;;;24.40;55.24
65872;BME280;52653;50.080;21.992;2023-07-20T11:14:55;98570.63;;;24.34;55.71
65872;BME280;52653;50.080;21.992;2023-07-20T11:17:32;98564.09;;;24.20;56.15
65872;BME280;52653;50.080;21.992;2023-07-20T11:20:26;98555.16;;;24.05;56.51
65872;BME280;52653;50.080;21.992;2023-07-20T11:23:20;98551.36;;;24.15;57.57
65872;BME280;52653;50.080;21.992;2023-07-20T11:26:02;98541.59;;;24.31;56.88
65872;BME280;52653;50.080;21.992;2023-07-20T11:28:37;98534.75;;;24.36;55.75
65872;BME280;52653;50.080;21.992;2023-07-20T11:31:09;98540.02;;;24.28;55.51
65872;BME280;52653;50.080;21.992;2023-07-20T11:33:51;98537.96;;;24.03;55.44
65872;BME280;52653;50.080;21.992;2023-07-20T11:36:45;98536.13;;;24.13;56.16
65872;BME280;52653;50.080;21.992;2023-07-20T11:39:41;98540.08;;;24.35;55.68
65872;BME280;52653;50.080;21.992;2023-07-20T11:42:46;98538.83;;;24.84;53.87
65872;BME280;52653;50.080;21.992;2023-07-20T11:45:47;98533.42;;;25.42;52.65
65872;BME280;52653;50.080;21.992;2023-07-20T11:48:22;98523.77;;;25.80;51.69
65872;BME280;52653;50.080;21.992;2023-07-20T11:51:18;98521.52;;;26.05;50.29
65872;BME280;52653;50.080;21.992;2023-07-20T11:53:55;98525.09;;;26.01;48.30
65872;BME280;52653;50.080;21.992;2023-07-20T11:56:43;98518.08;;;25.90;47.98
65872;BME280;52653;50.080;21.992;2023-07-20T11:59:22;98520.15;;;26.11;49.15
65872;BME280;52653;50.080;21.992;2023-07-20T12:01:55;98519.19;;;26.20;48.34
65872;BME280;52653;50.080;21.992;2023-07-20T12:04:33;98514.41;;;26.17;48.38
65872;BME280;52653;50.080;21.992;2023-07-20T12:07:10;98514.99;;;26.45;48.15
65872;BME280;52653;50.080;21.992;2023-07-20T12:09:42;98513.34;;;26.64;48.20
65872;BME280;52653;50.080;21.992;2023-07-20T12:12:26;98511.95;;;26.79;47.83
65872;BME280;52653;50.080;21.992;2023-07-20T12:15:17;98508.51;;;26.85;47.47
65872;BME280;52653;50.080;21.992;2023-07-20T12:18:02;98506.67;;;26.96;47.51
65872;BME280;52653;50.080;21.992;2023-07-20T12:20:38;98504.38;;;27.13;45.90
65872;BME280;52653;50.080;21.992;2023-07-20T12:23:12;98505.64;;;27.15;43.07
65872;BME280;52653;50.080;21.992;2023-07-20T12:25:48;98508.25;;;27.18;42.91
65872;BME280;52653;50.080;21.992;2023-07-20T12:28:26;98508.75;;;27.04;42.92
65872;BME280;52653;50.080;21.992;2023-07-20T12:31:01;98513.08;;;26.93;42.75
65872;BME280;52653;50.080;21.992;2023-07-20T12:33:38;98508.36;;;27.08;45.00
65872;BME280;52653;50.080;21.992;2023-07-20T12:36:14;98505.98;;;27.11;44.87
65872;BME280;52653;50.080;21.992;2023-07-20T12:38:56;98508.17;;;27.23;45.06
65872;BME280;52653;50.080;21.992;2023-07-20T12:41:31;98499.72;;;27.27;44.65
65872;BME280;52653;50.080;21.992;2023-07-20T12:44:04;98497.65;;;27.22;43.79
65872;BME280;52653;50.080;21.992;2023-07-20T12:46:41;98496.73;;;27.26;44.42
65872;BME280;52653;50.080;21.992;2023-07-20T12:49:14;98495.63;;;27.45;44.44
65872;BME280;52653;50.080;21.992;2023-07-20T12:51:46;98507.42;;;27.62;43.73
65872;BME280;52653;50.080;21.992;2023-07-20T12:54:19;98505.62;;;27.68;43.57
65872;BME280;52653;50.080;21.992;2023-07-20T12:56:55;98505.33;;;27.72;43.34
65872;BME280;52653;50.080;21.992;2023-07-20T12:59:33;98501.27;;;27.63;43.49
65872;BME280;52653;50.080;21.992;2023-07-20T13:02:06;98501.12;;;27.64;43.94
65872;BME280;52653;50.080;21.992;2023-07-20T13:04:50;98505.17;;;27.53;42.72
65872;BME280;52653;50.080;21.992;2023-07-20T13:07:35;98497.96;;;27.42;42.81
65872;BME280;52653;50.080;21.992;2023-07-20T13:10:19;98503.71;;;27.43;42.64
65872;BME280;52653;50.080;21.992;2023-07-20T13:12:52;98504.83;;;27.34;41.74
65872;BME280;52653;50.080;21.992;2023-07-20T13:15:46;98503.66;;;27.04;42.24
65872;BME280;52653;50.080;21.992;2023-07-20T13:18:27;98506.59;;;26.62;42.90
65872;BME280;52653;50.080;21.992;2023-07-20T13:21:04;98508.85;;;26.48;44.56
65872;BME280;52653;50.080;21.992;2023-07-20T13:23:42;98503.66;;;26.52;44.94
65872;BME280;52653;50.080;21.992;2023-07-20T13:26:35;98506.55;;;26.52;44.63
65872;BME280;52653;50.080;21.992;2023-07-20T13:29:08;98503.86;;;26.41;45.16
65872;BME280;52653;50.080;21.992;2023-07-20T13:31:51;98498.61;;;26.45;45.83
65872;BME280;52653;50.080;21.992;2023-07-20T13:34:26;98499.56;;;26.47;45.78
65872;BME280;52653;50.080;21.992;2023-07-20T13:37:22;98498.48;;;26.47;45.67
65872;BME280;52653;50.080;21.992;2023-07-20T13:40:08;98498.45;;;26.62;45.64
65872;BME280;52653;50.080;21.992;2023-07-20T13:42:43;98497.61;;;26.70;44.88
65872;BME280;52653;50.080;21.992;2023-07-20T13:45:20;98493.60;;;26.77;44.16
65872;BME280;52653;50.080;21.992;2023-07-20T13:48:14;98492.23;;;26.88;43.92
65872;BME280;52653;50.080;21.992;2023-07-20T13:51:10;98495.95;;;27.02;44.48
65872;BME280;52653;50.080;21.992;2023-07-20T13:54:03;98495.89;;;27.34;43.75
65872;BME280;52653;50.080;21.992;2023-07-20T13:56:38;98492.71;;;27.59;43.64
65872;BME280;52653;50.080;21.992;2023-07-20T13:59:15;98491.69;;;27.50;40.57
65872;BME280;52653;50.080;21.992;2023-07-20T14:01:48;98490.83;;;27.19;41.38
65872;BME280;52653;50.080;21.992;2023-07-20T14:04:20;98492.77;;;27.06;42.52
65872;BME280;52653;50.080;21.992;2023-07-20T14:06:54;98492.27;;;26.83;43.98
65872;BME280;52653;50.080;21.992;2023-07-20T14:09:27;98491.47;;;26.72;45.35
65872;BME280;52653;50.080;21.992;2023-07-20T14:12:02;98497.68;;;26.71;46.04
65872;BME280;52653;50.080;21.992;2023-07-20T14:14:38;98507.00;;;26.59;46.49
65872;BME280;52653;50.080;21.992;2023-07-20T14:17:13;98505.32;;;26.40;46.65
65872;BME280;52653;50.080;21.992;2023-07-20T14:19:49;98509.50;;;26.14;47.00
65872;BME280;52653;50.080;21.992;2023-07-20T14:22:22;98506.27;;;25.96;47.80
65872;BME280;52653;50.080;21.992;2023-07-20T14:24:57;98506.20;;;25.84;48.19
65872;BME280;52653;50.080;21.992;2023-07-20T14:27:30;98507.70;;;25.67;48.16
65872;BME280;52653;50.080;21.992;2023-07-20T14:30:03;98512.58;;;25.67;49.05
65872;BME280;52653;50.080;21.992;2023-07-20T14:32:56;98514.52;;;25.77;49.02
65872;BME280;52653;50.080;21.992;2023-07-20T14:35:29;98511.83;;;25.88;49.09